This is the latest recevied weather packets stored in our database for station/object N2XP-2. If no packets are shown the sender has not sent any weather packets the latest 10 day(s).
| Time | Temp. | Humidity | Pressure | Rain* | Wind** | Luminosity | Snow |
|---|---|---|---|---|---|---|---|
| 1777654692 | 21.11° C | 47% | 1012.4 hPa | 0 mm | 0 m/s | - | - |
| 1777654589 | 21.11° C | 47% | 1012.4 hPa | 0 mm | 0 m/s | - | - |
| 1777654376 | 20.56° C | 46% | 1012.5 hPa | 0 mm | 0 m/s | - | - |
| 1777654290 | 20.56° C | 46% | 1012.5 hPa | 0 mm | 0 m/s | - | - |
| 1777654053 | 20.56° C | 48% | 1012.7 hPa | 0 mm | 0.45 m/s, 128° | - | - |
| 1777653986 | 20.56° C | 48% | 1012.7 hPa | 0 mm | 0.45 m/s, 128° | - | - |
| 1777653848 | 20.56° C | 47% | 1012.8 hPa | 0 mm | 0.45 m/s, 314° | - | - |
| 1777653731 | 20.56° C | 47% | 1012.8 hPa | 0 mm | 0.45 m/s, 314° | - | - |
| 1777653687 | 20.56° C | 47% | 1012.8 hPa | 0 mm | 0.45 m/s, 314° | - | - |
| 1777653388 | 20.56° C | 49% | 1012.7 hPa | 0 mm | 0.45 m/s, 281° | - | - |
| 1777653235 | 18.89° C | 52% | 1013 hPa | 0 mm | 0 m/s | - | - |
| 1777653151 | 20° C | 49% | 1012.6 hPa | 0 mm | 0.89 m/s, 194° | - | - |
| 1777653085 | 20° C | 49% | 1012.6 hPa | 0 mm | 0.89 m/s, 194° | - | - |
| 1777652886 | 20° C | 48% | 1012.7 hPa | 0 mm | 0.89 m/s, 210° | - | - |
| 1777652786 | 20° C | 48% | 1012.7 hPa | 0 mm | 0.89 m/s, 210° | - | - |
| 1777652678 | 20° C | 50% | 1012.8 hPa | 0 mm | 0 m/s | - | - |
| 1777652487 | 20° C | 50% | 1012.8 hPa | 0 mm | 0 m/s | - | - |
| 1777652257 | 19.44° C | 50% | 1012.8 hPa | 0 mm | 0 m/s | - | - |
| 1777652184 | 19.44° C | 50% | 1012.8 hPa | 0 mm | 0 m/s | - | - |
| 1777651885 | 18.89° C | 51% | 1012.9 hPa | 0 mm | 0.45 m/s, 232° | - | - |
| 1777651651 | 18.89° C | 52% | 1013 hPa | 0 mm | 0 m/s | - | - |
| 1777651586 | 18.89° C | 52% | 1013 hPa | 0 mm | 0 m/s | - | - |
| 1777651335 | 18.89° C | 53% | 1013.2 hPa | 0 mm | 0.45 m/s, 356° | - | - |
| 1777651307 | 17.22° C | 56% | 1013.4 hPa | 0 mm | 0 m/s | - | - |
| 1777651283 | 18.89° C | 53% | 1013.2 hPa | 0 mm | 0.45 m/s, 356° | - | - |
* Rain latest hour (hover to see other rain measurements)
** Current wind speed in m/s (hover to see current wind gust speed)